PWSweather.com
Personal Weather Stations
Station Observations
W4TFB
Winston Park, Palatine, IL 60074

Winston ParkPalatine, IL 60074

Lat: 42.10881, Lon: -88.01135

Elevation: 728

Station Type: Weatherflow

https://viewpws.com

Latest ConditionsUpdated 7:45:00 AM CDT Monday, Jun 24, 2019
Currently Today's Max Today's Min Today's Average
Temperature 70.1°F21.2°C 70.3°F21.3°C 69.4°F20.8°C 70.0°F21.1°C
Dew Point 69.8°F21.0°C 70.0°F21.1°C 69.1°F20.6°C 69.7°F20.9°C
Winds 1.2 mph SW1.9 kmh SW 3.5 mph -5.6 kmh - - 1.7 mph 2.7 kmh
Wind Gusts 3.5 mph5.6 kmh 6.9 mph11.1 kmh - -
Humidity 99% 99% 98% 99%
Pressure 28.86 in977.3 mb 28.89 in978.3 mb 28.85 in977.0 mb -
Hour Temp Dew Point Humidity Winds Wind Gusts Pressure Precip Precip Rate Daily Precip Total
07:45 AM 70.1°F21.2°C 69.8°F21.0°C 99% 1.2 mph SW1.9 kmh SW 3.5 mph5.6 kmh 28.86 in977.3 mb - 0.00 in0.0 mm 0.00 in0.0 mm
07:30 AM 70.2°F21.2°C 69.9°F21.1°C 99% 3.5 mph SW5.6 kmh SW 5.8 mph9.3 kmh 28.86 in977.3 mb - 0.00 in0.0 mm 0.00 in0.0 mm
07:15 AM 70.2°F21.2°C 69.9°F21.1°C 99% 1.2 mph S1.9 kmh S 2.3 mph3.7 kmh 28.85 in977.0 mb - 0.00 in0.0 mm 0.00 in0.0 mm
07:00 AM 70.0°F21.1°C 69.7°F20.9°C 99% 1.2 mph S1.9 kmh S 3.5 mph5.6 kmh 28.85 in977.0 mb - 0.00 in0.0 mm 0.00 in0.0 mm
06:45 AM 70.0°F21.1°C 69.7°F20.9°C 99% 2.3 mph SSW3.7 kmh SSW 3.5 mph5.6 kmh 28.85 in977.0 mb - 0.00 in0.0 mm 0.00 in0.0 mm
06:30 AM 70.0°F21.1°C 69.7°F20.9°C 99% 2.3 mph S3.7 kmh S 6.9 mph11.1 kmh 28.85 in977.0 mb - 0.00 in0.0 mm 0.00 in0.0 mm
06:15 AM 70.0°F21.1°C 69.7°F20.9°C 99% 1.2 mph S1.9 kmh S 2.3 mph3.7 kmh 28.85 in977.0 mb - 0.00 in0.0 mm 0.00 in0.0 mm
06:00 AM 70.0°F21.1°C 69.7°F20.9°C 99% 1.2 mph SSE1.9 kmh SSE 4.6 mph7.4 kmh 28.85 in977.0 mb - 0.00 in0.0 mm 0.00 in0.0 mm
05:45 AM 69.8°F21.0°C 69.5°F20.8°C 99% 1.2 mph S1.9 kmh S 3.5 mph5.6 kmh 28.86 in977.3 mb - 0.00 in0.0 mm 0.00 in0.0 mm
05:30 AM 69.8°F21.0°C 69.5°F20.8°C 99% 2.3 mph SSW3.7 kmh SSW 4.6 mph7.4 kmh 28.86 in977.3 mb - 0.00 in0.0 mm 0.00 in0.0 mm
05:15 AM 69.6°F20.9°C 69.3°F20.7°C 99% 2.3 mph SSW3.7 kmh SSW 3.5 mph5.6 kmh 28.85 in977.0 mb - 0.00 in0.0 mm 0.00 in0.0 mm
05:00 AM 69.4°F20.8°C 69.1°F20.6°C 99% 2.3 mph SSW3.7 kmh SSW 4.6 mph7.4 kmh 28.85 in977.0 mb - 0.00 in0.0 mm 0.00 in0.0 mm
04:45 AM 69.8°F21.0°C 69.5°F20.8°C 99% 1.2 mph SSW1.9 kmh SSW 3.5 mph5.6 kmh 28.85 in977.0 mb - 0.00 in0.0 mm 0.00 in0.0 mm
04:30 AM 70.0°F21.1°C 69.7°F20.9°C 99% 2.3 mph S3.7 kmh S 3.5 mph5.6 kmh 28.85 in977.0 mb - 0.00 in0.0 mm 0.00 in0.0 mm
04:15 AM 69.8°F21.0°C 69.5°F20.8°C 99% 1.2 mph S1.9 kmh S 3.5 mph5.6 kmh 28.85 in977.0 mb - 0.00 in0.0 mm 0.00 in0.0 mm
04:00 AM 70.0°F21.1°C 69.7°F20.9°C 99% 2.3 mph SSW3.7 kmh SSW 5.8 mph9.3 kmh 28.85 in977.0 mb - 0.00 in0.0 mm 0.00 in0.0 mm
03:45 AM 69.6°F20.9°C 69.3°F20.7°C 99% 2.3 mph S3.7 kmh S 3.5 mph5.6 kmh 28.85 in977.0 mb - 0.00 in0.0 mm 0.00 in0.0 mm
03:30 AM 69.6°F20.9°C 69.3°F20.7°C 99% 2.3 mph SW3.7 kmh SW 4.6 mph7.4 kmh 28.85 in977.0 mb - 0.00 in0.0 mm 0.00 in0.0 mm
03:15 AM 69.8°F21.0°C 69.5°F20.8°C 99% 1.2 mph S1.9 kmh S 2.3 mph3.7 kmh 28.85 in977.0 mb - 0.00 in0.0 mm 0.00 in0.0 mm
03:00 AM 70.0°F21.1°C 69.7°F20.9°C 99% 1.2 mph S1.9 kmh S 3.5 mph5.6 kmh 28.85 in977.0 mb - 0.00 in0.0 mm 0.00 in0.0 mm
02:45 AM 70.0°F21.1°C 69.7°F20.9°C 99% 2.3 mph S3.7 kmh S 5.8 mph9.3 kmh 28.86 in977.3 mb - 0.00 in0.0 mm 0.00 in0.0 mm
02:30 AM 70.0°F21.1°C 69.7°F20.9°C 99% 1.2 mph S1.9 kmh S 3.5 mph5.6 kmh 28.87 in977.7 mb - 0.00 in0.0 mm 0.00 in0.0 mm
02:15 AM 70.2°F21.2°C 69.9°F21.1°C 99% 1.2 mph S1.9 kmh S 3.5 mph5.6 kmh 28.87 in977.7 mb - 0.00 in0.0 mm 0.00 in0.0 mm
02:00 AM 70.3°F21.3°C 70.0°F21.1°C 99% 1.2 mph S1.9 kmh S 2.3 mph3.7 kmh 28.88 in978.0 mb - 0.00 in0.0 mm 0.00 in0.0 mm
01:45 AM 70.2°F21.2°C 69.9°F21.1°C 99% 2.3 mph SSW3.7 kmh SSW 3.5 mph5.6 kmh 28.88 in978.0 mb - 0.00 in0.0 mm 0.00 in0.0 mm
01:30 AM 70.2°F21.2°C 69.9°F21.1°C 99% 2.3 mph SSW3.7 kmh SSW 4.6 mph7.4 kmh 28.89 in978.3 mb - 0.00 in0.0 mm 0.00 in0.0 mm
01:15 AM 70.3°F21.3°C 70.0°F21.1°C 99% 1.2 mph SSW1.9 kmh SSW 3.5 mph5.6 kmh 28.89 in978.3 mb - 0.00 in0.0 mm 0.00 in0.0 mm
01:00 AM 70.2°F21.2°C 69.9°F21.1°C 99% 2.3 mph SW3.7 kmh SW 3.5 mph5.6 kmh 28.89 in978.3 mb - 0.00 in0.0 mm 0.00 in0.0 mm
12:45 AM 70.0°F21.1°C 69.7°F20.9°C 99% 2.3 mph SSW3.7 kmh SSW 4.6 mph7.4 kmh 28.88 in978.0 mb - 0.00 in0.0 mm 0.00 in0.0 mm
12:30 AM 70.0°F21.1°C 69.7°F20.9°C 99% Calm Calm 1.2 mph1.9 kmh 28.88 in978.0 mb - 0.00 in0.0 mm 0.00 in0.0 mm
12:15 AM 70.0°F21.1°C 69.4°F20.8°C 98% 1.2 mph E1.9 kmh E 1.2 mph1.9 kmh 28.88 in978.0 mb - 0.00 in0.0 mm 0.00 in0.0 mm
12:00 AM 70.2°F21.2°C 69.6°F20.9°C 98% Calm Calm 2.3 mph3.7 kmh 28.89 in978.3 mb - 0.00 in0.0 mm 0.00 in0.0 mm